Time;durP1;ratioP1;P1;durP2;ratioP2;P2;SDS_P1;SDS_P2;PMS_P1;PMS_P2;Temp;Humidity;BMP_temperature;BMP_pressure;BME280_temperature;BME280_humidity;BME280_pressure;Samples;Min_cycle;Max_cycle;Signal;HPM_P1;HPM_P2
2022/06/25 00:01:27;;;;;;;0.70;0.30;;;15.40;99.90;;;;;;5010298;28;20057;-83
2022/06/25 00:03:53;;;;;;;1.75;0.57;;;15.40;99.90;;;;;;5028787;28;20017;-84
2022/06/25 00:06:19;;;;;;;1.42;0.57;;;15.20;99.90;;;;;;5006482;28;20110;-83
2022/06/25 00:08:45;;;;;;;2.10;0.40;;;;;;;;;;5011177;28;20041;-83
2022/06/25 00:13:56;;;;;;;1.63;0.63;;;15.20;99.90;;;;;;5025488;28;20044;-84
2022/06/25 00:16:22;;;;;;;0.80;0.40;;;15.20;99.90;;;;;;5013908;28;20026;-83
2022/06/25 00:18:48;;;;;;;0.65;0.35;;;15.20;99.90;;;;;;5013555;28;20037;-83
2022/06/25 00:21:13;;;;;;;1.85;0.30;;;15.20;99.90;;;;;;5013532;28;20577;-84
2022/06/25 00:23:39;;;;;;;1.30;0.50;;;15.10;99.90;;;;;;5032861;28;20029;-83
2022/06/25 00:26:04;;;;;;;1.10;0.50;;;15.20;99.90;;;;;;5029600;28;20121;-82
2022/06/25 00:28:30;;;;;;;1.10;0.40;;;15.20;99.90;;;;;;5013625;28;20036;-82
2022/06/25 00:30:56;;;;;;;1.88;0.52;;;15.20;99.90;;;;;;5020742;28;20032;-84
2022/06/25 00:33:21;;;;;;;0.60;0.40;;;15.30;99.90;;;;;;5038500;28;20024;-84
2022/06/25 00:35:47;;;;;;;1.70;0.65;;;15.20;99.90;;;;;;5024139;28;20029;-82
2022/06/25 00:38:12;;;;;;;2.20;0.50;;;15.30;99.90;;;;;;5038797;28;20413;-83
2022/06/25 00:40:38;;;;;;;0.60;0.32;;;15.20;99.90;;;;;;5038492;28;20452;-82
2022/06/25 00:43:04;;;;;;;1.40;0.60;;;15.20;99.90;;;;;;5034739;28;20117;-83
2022/06/25 00:45:30;;;;;;;2.55;0.35;;;15.10;99.90;;;;;;5032083;28;20404;-84
2022/06/25 00:47:55;;;;;;;1.63;0.50;;;15.20;99.90;;;;;;5018402;28;20410;-82
2022/06/25 00:50:21;;;;;;;1.35;0.43;;;15.10;99.90;;;;;;5031410;28;20025;-84
2022/06/25 00:52:52;;;;;;;2.83;0.90;;;15.10;99.90;;;;;;5034312;28;20060;-83
2022/06/25 00:55:22;;;;;;;1.02;0.45;;;15.00;99.90;;;;;;5033873;28;20022;-84
2022/06/25 00:57:51;;;;;;;2.42;0.40;;;15.00;99.90;;;;;;5016457;28;20444;-83
2022/06/25 01:00:19;;;;;;;1.25;0.57;;;15.00;99.90;;;;;;5038209;28;20433;-83
2022/06/25 01:02:45;;;;;;;0.93;0.52;;;15.00;99.90;;;;;;5011338;28;20030;-82
2022/06/25 01:05:14;;;;;;;0.80;0.30;;;15.00;99.90;;;;;;5027267;28;20034;-83
2022/06/25 01:07:45;;;;;;;1.40;0.50;;;14.90;99.90;;;;;;5016543;28;20036;-82
2022/06/25 01:10:13;;;;;;;2.15;0.40;;;15.00;99.90;;;;;;5019208;28;20035;-84
2022/06/25 01:12:39;;;;;;;0.80;0.40;;;15.00;99.90;;;;;;5033975;28;20425;-84
2022/06/25 01:15:08;;;;;;;0.82;0.30;;;15.10;99.90;;;;;;5031835;28;20034;-84
2022/06/25 01:17:36;;;;;;;1.45;0.47;;;15.00;99.90;;;;;;5022571;28;20030;-82
2022/06/25 01:20:04;;;;;;;0.85;0.22;;;15.00;99.90;;;;;;5031071;28;20053;-83
2022/06/25 01:22:32;;;;;;;1.52;0.38;;;15.00;99.90;;;;;;5032768;28;20064;-84
2022/06/25 01:24:57;;;;;;;1.08;0.50;;;15.00;99.90;;;;;;5016618;28;20034;-84
2022/06/25 01:27:23;;;;;;;2.22;0.65;;;15.00;99.90;;;;;;5012950;28;20033;-82
2022/06/25 01:29:49;;;;;;;5.47;0.52;;;14.90;99.90;;;;;;5016936;28;20474;-84
2022/06/25 01:32:14;;;;;;;0.90;0.38;;;14.90;99.90;;;;;;5015034;28;20025;-83
2022/06/25 01:34:40;;;;;;;1.25;0.40;;;14.80;99.90;;;;;;5030886;28;20025;-84
2022/06/25 01:37:06;;;;;;;1.15;0.43;;;15.00;99.90;;;;;;5031231;28;20034;-83
2022/06/25 01:39:31;;;;;;;2.05;0.50;;;15.00;99.90;;;;;;5008689;28;20030;-84
2022/06/25 01:41:57;;;;;;;2.80;0.47;;;15.00;99.90;;;;;;5030904;28;20036;-84
2022/06/25 01:44:23;;;;;;;0.93;0.40;;;15.00;99.90;;;;;;5035059;28;20071;-84
2022/06/25 01:46:49;;;;;;;0.73;0.40;;;15.00;99.90;;;;;;5023864;28;20022;-84
2022/06/25 01:49:15;;;;;;;0.77;0.40;;;15.10;99.90;;;;;;5037457;28;20232;-84
2022/06/25 01:51:41;;;;;;;0.77;0.30;;;15.00;99.90;;;;;;5017292;28;20033;-84
2022/06/25 01:54:07;;;;;;;4.32;0.50;;;15.10;99.90;;;;;;5011916;28;20455;-81
2022/06/25 01:56:33;;;;;;;0.63;0.30;;;15.10;99.90;;;;;;5030421;28;20033;-83
2022/06/25 01:58:58;;;;;;;0.90;0.40;;;15.10;99.90;;;;;;5008865;28;20040;-82
2022/06/25 02:01:24;;;;;;;0.80;0.38;;;15.00;99.90;;;;;;5018912;28;20410;-84
2022/06/25 02:03:50;;;;;;;0.95;0.32;;;14.90;99.90;;;;;;5019580;28;20025;-84
2022/06/25 02:06:16;;;;;;;0.80;0.30;;;14.90;99.90;;;;;;5029467;28;20036;-83
2022/06/25 02:08:42;;;;;;;0.60;0.30;;;14.90;99.90;;;;;;5012904;28;20018;-84
2022/06/25 02:11:09;;;;;;;3.00;0.47;;;14.90;99.90;;;;;;5029774;28;20541;-81
2022/06/25 02:13:35;;;;;;;1.55;0.68;;;14.90;99.90;;;;;;5031002;28;20022;-84
2022/06/25 02:16:02;;;;;;;0.60;0.30;;;15.00;99.90;;;;;;5029701;28;20032;-83
2022/06/25 02:18:28;;;;;;;0.98;0.30;;;14.90;99.90;;;;;;5036248;28;20030;-84
2022/06/25 02:20:55;;;;;;;0.82;0.32;;;14.90;99.90;;;;;;5031309;28;20022;-84
2022/06/25 02:23:22;;;;;;;0.50;0.20;;;15.00;99.90;;;;;;5016684;28;20017;-84
2022/06/25 02:25:48;;;;;;;1.20;0.40;;;14.90;99.90;;;;;;5018908;28;20039;-84
2022/06/25 02:28:15;;;;;;;1.00;0.40;;;15.00;99.90;;;;;;5029669;28;20136;-83
2022/06/25 02:30:41;;;;;;;2.58;0.45;;;15.00;99.90;;;;;;5037593;28;20033;-84
2022/06/25 02:33:12;;;;;;;1.50;0.47;;;14.90;99.90;;;;;;5012553;28;20028;-84
2022/06/25 02:35:42;;;;;;;0.88;0.30;;;14.90;99.90;;;;;;5024883;28;20092;-84
2022/06/25 02:38:09;;;;;;;1.02;0.40;;;14.90;99.90;;;;;;5009648;28;20080;-83
2022/06/25 02:40:35;;;;;;;1.00;0.40;;;14.80;99.90;;;;;;5009482;28;20449;-84
2022/06/25 02:43:01;;;;;;;1.20;0.50;;;14.80;99.90;;;;;;5010063;28;20030;-84
2022/06/25 02:45:27;;;;;;;0.40;0.25;;;14.80;99.90;;;;;;5013590;28;20029;-84
2022/06/25 02:47:53;;;;;;;0.90;0.47;;;14.80;99.90;;;;;;5034773;28;20021;-84
2022/06/25 02:50:19;;;;;;;0.73;0.32;;;14.70;99.90;;;;;;5006086;28;20017;-84
2022/06/25 02:52:45;;;;;;;0.45;0.30;;;14.70;99.90;;;;;;5008790;28;20635;-83
2022/06/25 02:55:10;;;;;;;1.17;0.50;;;14.70;99.90;;;;;;5029242;28;20552;-83
2022/06/25 03:00:20;;;;;;;1.15;0.30;;;14.80;99.90;;;;;;5035682;28;20614;-84
2022/06/25 03:02:46;;;;;;;1.05;0.40;;;14.80;99.90;;;;;;5033064;28;20102;-84
2022/06/25 03:05:11;;;;;;;2.35;0.43;;;14.70;99.90;;;;;;5010427;28;20053;-84
2022/06/25 03:07:37;;;;;;;1.13;0.50;;;14.70;99.90;;;;;;5011496;28;20067;-84
2022/06/25 03:10:03;;;;;;;1.13;0.35;;;14.70;99.90;;;;;;5006976;28;20021;-84
2022/06/25 03:12:29;;;;;;;1.00;0.43;;;14.70;99.90;;;;;;5035363;28;20470;-83
2022/06/25 03:14:54;;;;;;;1.00;0.47;;;14.70;99.90;;;;;;5032627;28;20048;-83
2022/06/25 03:17:20;;;;;;;1.48;0.47;;;14.70;99.90;;;;;;5028839;28;20030;-84
2022/06/25 03:19:46;;;;;;;0.70;0.40;;;14.70;99.90;;;;;;5042635;22;20085;-86
2022/06/25 03:22:11;;;;;;;0.85;0.40;;;14.60;99.90;;;;;;5026076;28;20025;-86
2022/06/25 03:24:37;;;;;;;0.98;0.40;;;14.70;99.90;;;;;;5023226;28;20021;-86
2022/06/25 03:27:02;;;;;;;1.55;0.45;;;14.70;99.90;;;;;;5008590;28;20029;-87
2022/06/25 03:29:28;;;;;;;0.82;0.40;;;14.70;99.90;;;;;;5007998;28;20025;-87
2022/06/25 03:31:54;;;;;;;1.83;0.60;;;14.70;99.90;;;;;;5034874;28;20526;-86
2022/06/25 03:34:19;;;;;;;0.85;0.40;;;14.70;99.90;;;;;;5017669;28;20033;-87
2022/06/25 03:36:45;;;;;;;0.75;0.30;;;14.70;99.90;;;;;;5008924;28;20116;-86
2022/06/25 03:39:11;;;;;;;0.93;0.40;;;14.70;99.90;;;;;;5033400;28;20032;-87
2022/06/25 03:41:36;;;;;;;0.90;0.47;;;14.70;99.90;;;;;;5018101;28;20029;-87
2022/06/25 03:44:04;;;;;;;0.98;0.38;;;14.70;99.90;;;;;;5035296;28;20087;-86
2022/06/25 03:46:34;;;;;;;2.95;0.30;;;14.70;99.90;;;;;;5009365;28;20388;-87
2022/06/25 03:49:01;;;;;;;1.63;0.40;;;14.70;99.90;;;;;;5023536;28;20037;-86
2022/06/25 03:51:27;;;;;;;2.22;0.40;;;14.70;99.90;;;;;;5037939;28;20022;-87
2022/06/25 03:53:54;;;;;;;1.13;0.38;;;14.70;99.90;;;;;;5035753;28;20062;-86
2022/06/25 03:56:19;;;;;;;1.42;0.40;;;14.70;99.90;;;;;;5035543;28;20029;-85
2022/06/25 03:58:45;;;;;;;0.70;0.43;;;14.70;99.90;;;;;;5006973;28;20108;-88
2022/06/25 04:01:12;;;;;;;3.35;0.50;;;14.80;99.90;;;;;;5016703;28;20025;-86
2022/06/25 04:03:38;;;;;;;4.43;0.52;;;14.80;99.90;;;;;;5016591;28;20025;-86
2022/06/25 04:06:04;;;;;;;1.33;0.50;;;14.90;99.90;;;;;;5029718;28;20095;-87
2022/06/25 04:08:29;;;;;;;1.60;0.40;;;14.90;99.90;;;;;;5016209;28;20417;-87
2022/06/25 04:10:55;;;;;;;0.82;0.43;;;14.90;99.90;;;;;;5017915;28;20037;-87
2022/06/25 04:13:20;;;;;;;0.75;0.30;;;14.90;99.90;;;;;;5032792;28;20025;-86
2022/06/25 04:15:46;;;;;;;1.42;0.47;;;14.90;99.90;;;;;;5017322;28;20037;-86
2022/06/25 04:18:14;;;;;;;0.70;0.30;;;15.00;99.90;;;;;;5016640;28;20033;-86
2022/06/25 04:20:39;;;;;;;1.15;0.45;;;15.00;99.90;;;;;;5008969;28;20041;-86
2022/06/25 04:23:05;;;;;;;0.75;0.30;;;15.10;99.90;;;;;;5018514;28;20044;-87
2022/06/25 04:25:31;;;;;;;0.98;0.43;;;15.10;99.90;;;;;;5034283;28;20044;-86
2022/06/25 04:30:42;;;;;;;0.90;0.40;;;15.10;99.90;;;;;;5032931;28;20033;-87
2022/06/25 04:33:07;;;;;;;0.77;0.30;;;15.10;99.90;;;;;;5028490;28;20017;-87
2022/06/25 04:35:33;;;;;;;0.70;0.30;;;15.20;99.90;;;;;;5029313;28;20071;-87
2022/06/25 04:37:58;;;;;;;1.55;0.30;;;15.30;99.90;;;;;;5016605;28;20442;-87
2022/06/25 04:40:24;;;;;;;0.80;0.30;;;15.30;99.90;;;;;;5017171;28;20029;-87
2022/06/25 04:42:53;;;;;;;0.88;0.40;;;15.40;99.90;;;;;;5023856;28;20061;-87
2022/06/25 04:45:18;;;;;;;3.47;0.60;;;15.50;99.90;;;;;;5035589;28;20394;-87
2022/06/25 04:47:44;;;;;;;2.10;0.47;;;15.60;99.90;;;;;;5031427;28;20033;-88
2022/06/25 04:50:10;;;;;;;0.70;0.38;;;15.60;99.90;;;;;;5015127;28;20406;-87
2022/06/25 04:52:35;;;;;;;0.60;0.30;;;15.60;99.90;;;;;;5015364;28;20018;-87
2022/06/25 04:55:01;;;;;;;0.77;0.30;;;15.50;99.90;;;;;;5012259;28;20028;-88
2022/06/25 04:57:26;;;;;;;0.80;0.40;;;15.40;99.90;;;;;;5013242;28;20021;-87
2022/06/25 04:59:52;;;;;;;0.90;0.35;;;15.40;99.90;;;;;;5013198;28;20055;-87
2022/06/25 05:02:18;;;;;;;0.95;0.30;;;15.60;99.90;;;;;;5011586;28;20016;-87
2022/06/25 05:04:43;;;;;;;1.02;0.40;;;15.60;99.90;;;;;;5008102;28;20036;-88
2022/06/25 05:07:09;;;;;;;1.23;0.50;;;15.70;99.90;;;;;;5013158;28;20052;-88
2022/06/25 05:09:34;;;;;;;0.85;0.30;;;15.70;99.90;;;;;;5006567;28;20022;-88
2022/06/25 05:12:00;;;;;;;1.15;0.40;;;15.80;99.90;;;;;;5013928;28;20018;-87
2022/06/25 05:14:26;;;;;;;0.93;0.40;;;15.90;99.90;;;;;;5019913;28;20017;-88
2022/06/25 05:16:53;;;;;;;2.97;0.38;;;15.90;99.90;;;;;;5015482;28;20081;-87
2022/06/25 05:19:19;;;;;;;0.40;0.20;;;15.80;99.90;;;;;;5006947;28;20033;-87
2022/06/25 05:21:45;;;;;;;0.52;0.30;;;15.80;99.90;;;;;;5033244;28;20152;-87
2022/06/25 05:24:10;;;;;;;0.60;0.20;;;15.80;99.90;;;;;;5016909;28;20037;-87
2022/06/25 05:26:36;;;;;;;0.75;0.35;;;15.90;99.90;;;;;;5016196;28;20021;-85
2022/06/25 05:29:02;;;;;;;0.52;0.32;;;15.80;99.90;;;;;;5027637;28;20034;-87
2022/06/25 05:31:27;;;;;;;0.88;0.43;;;15.90;99.90;;;;;;5012229;28;20053;-87
2022/06/25 05:33:53;;;;;;;0.38;0.20;;;16.00;99.90;;;;;;5015866;28;20394;-87
2022/06/25 05:36:19;;;;;;;1.25;0.28;;;16.00;99.90;;;;;;5014169;28;20055;-87
2022/06/25 05:38:44;;;;;;;0.57;0.28;;;16.20;99.90;;;;;;5010415;28;20076;-87
2022/06/25 05:41:10;;;;;;;1.02;0.30;;;16.40;99.90;;;;;;5018386;28;20033;-87
2022/06/25 05:43:37;;;;;;;1.08;0.73;;;16.50;99.90;;;;;;5015900;28;20021;-87
2022/06/25 05:46:02;;;;;;;0.73;0.40;;;16.60;99.90;;;;;;5028576;28;20052;-86
2022/06/25 05:48:28;;;;;;;0.65;0.30;;;16.70;99.90;;;;;;5029604;28;20633;-87
2022/06/25 05:50:54;;;;;;;0.77;0.30;;;16.70;99.90;;;;;;5015923;28;20037;-86
2022/06/25 05:53:20;;;;;;;2.80;0.40;;;16.80;99.90;;;;;;5015309;28;20604;-86
2022/06/25 05:55:45;;;;;;;1.40;0.60;;;16.70;99.90;;;;;;5014254;28;20032;-87
2022/06/25 05:58:12;;;;;;;0.93;0.35;;;16.70;99.90;;;;;;5013859;28;20032;-86
2022/06/25 06:00:38;;;;;;;1.10;0.40;;;16.70;99.90;;;;;;5015743;28;20026;-87
2022/06/25 06:03:04;;;;;;;1.15;0.30;;;16.80;99.90;;;;;;5033313;28;20056;-86
2022/06/25 06:05:29;;;;;;;0.77;0.30;;;16.90;99.90;;;;;;5011765;28;20041;-86
2022/06/25 06:07:55;;;;;;;0.52;0.20;;;17.10;99.90;;;;;;5027687;28;20026;-87
2022/06/25 06:10:21;;;;;;;1.25;0.30;;;17.30;99.90;;;;;;5015812;28;20022;-87
2022/06/25 06:12:46;;;;;;;0.60;0.30;;;17.40;99.90;;;;;;5015222;28;20026;-86
2022/06/25 06:15:12;;;;;;;0.60;0.30;;;17.60;99.90;;;;;;5028252;28;20101;-86
2022/06/25 06:17:38;;;;;;;2.28;0.50;;;17.70;99.90;;;;;;5004567;28;20018;-86
2022/06/25 06:20:04;;;;;;;1.30;0.40;;;17.70;99.90;;;;;;5006183;28;20025;-86
2022/06/25 06:22:30;;;;;;;0.60;0.30;;;17.80;99.90;;;;;;5013796;28;20043;-86
2022/06/25 06:24:56;;;;;;;0.60;0.22;;;17.80;99.90;;;;;;5007116;28;20034;-86
2022/06/25 06:27:21;;;;;;;0.43;0.30;;;17.70;99.90;;;;;;5014767;28;20036;-86
2022/06/25 06:29:47;;;;;;;0.57;0.20;;;17.80;99.90;;;;;;5013362;28;20449;-85
2022/06/25 06:32:13;;;;;;;2.00;0.28;;;17.90;99.90;;;;;;5017157;28;20148;-86
2022/06/25 06:34:39;;;;;;;2.80;0.40;;;18.10;99.90;;;;;;5033213;28;20018;-85
2022/06/25 06:37:04;;;;;;;0.50;0.30;;;18.20;99.90;;;;;;5030184;28;20034;-85
2022/06/25 06:39:30;;;;;;;0.57;0.20;;;18.50;99.90;;;;;;5040694;28;20025;-86
2022/06/25 06:41:56;;;;;;;0.50;0.20;;;18.60;99.90;;;;;;5021193;28;20437;-86
2022/06/25 06:44:21;;;;;;;0.65;0.20;;;18.70;99.90;;;;;;5021003;28;20112;-85
2022/06/25 06:46:47;;;;;;;1.05;0.30;;;18.80;99.90;;;;;;5028638;28;20036;-86
2022/06/25 06:49:13;;;;;;;1.08;0.50;;;18.90;99.90;;;;;;5020980;28;20046;-86
2022/06/25 06:51:38;;;;;;;0.60;0.20;;;19.10;99.90;;;;;;5038943;28;20017;-87
2022/06/25 06:54:04;;;;;;;0.63;0.25;;;19.00;99.90;;;;;;5029647;28;20029;-86
2022/06/25 06:56:30;;;;;;;0.77;0.30;;;18.90;99.90;;;;;;5046863;28;20017;-86
2022/06/25 06:58:55;;;;;;;0.52;0.28;;;19.00;99.90;;;;;;5049996;28;20049;-86
2022/06/25 07:01:21;;;;;;;1.33;0.30;;;19.20;99.90;;;;;;5050135;28;20025;-86
2022/06/25 07:03:47;;;;;;;0.50;0.20;;;19.30;99.90;;;;;;5026047;28;20060;-86
2022/06/25 07:06:12;;;;;;;0.50;0.30;;;19.40;99.90;;;;;;5032543;28;20093;-86
2022/06/25 07:08:38;;;;;;;0.60;0.30;;;19.40;99.90;;;;;;5040738;28;20401;-87
2022/06/25 07:11:28;;;;;;;0.43;0.22;;;19.60;99.90;;;;;;5050164;28;20461;-86
2022/06/25 07:13:49;;;;;;;0.88;0.30;;;19.80;99.90;;;;;;5048244;28;20029;-86
2022/06/25 07:16:15;;;;;;;13.10;0.50;;;20.00;99.90;;;;;;5034684;28;20039;-86
2022/06/25 07:18:40;;;;;;;0.57;0.30;;;20.10;99.90;;;;;;5046921;28;20025;-86
2022/06/25 07:21:06;;;;;;;1.20;0.73;;;20.20;99.90;;;;;;5044833;28;20030;-86
2022/06/25 07:23:31;;;;;;;0.75;0.30;;;20.40;99.90;;;;;;5052380;28;20060;-87
2022/06/25 07:25:57;;;;;;;1.42;0.30;;;20.50;99.90;;;;;;5018306;28;20025;-88
2022/06/25 07:28:22;;;;;;;0.80;0.30;;;20.50;99.90;;;;;;5034370;28;20044;-87
2022/06/25 07:30:48;;;;;;;0.45;0.20;;;20.50;99.90;;;;;;5033921;28;20028;-87
2022/06/25 07:33:14;;;;;;;0.73;0.20;;;20.50;99.90;;;;;;5031310;28;20113;-86
2022/06/25 07:35:39;;;;;;;1.67;0.43;;;20.70;99.90;;;;;;5034705;28;20033;-86
2022/06/25 07:38:05;;;;;;;0.40;0.20;;;20.80;99.90;;;;;;5016237;28;20025;-87
2022/06/25 07:40:30;;;;;;;1.00;0.28;;;20.80;99.90;;;;;;5030041;28;20026;-87
2022/06/25 07:42:56;;;;;;;0.93;0.40;;;20.80;99.90;;;;;;5035276;28;20036;-87
2022/06/25 07:45:22;;;;;;;0.80;0.20;;;20.70;99.90;;;;;;5033063;28;20140;-86
2022/06/25 07:47:47;;;;;;;1.60;0.20;;;20.50;99.90;;;;;;5028512;28;20033;-87
2022/06/25 07:52:57;;;;;;;0.85;0.30;;;20.60;99.90;;;;;;5027794;28;20535;-87
2022/06/25 07:55:23;;;;;;;0.50;0.20;;;20.80;99.90;;;;;;5025935;28;20120;-86
2022/06/25 07:57:48;;;;;;;0.85;0.40;;;20.80;99.90;;;;;;5024571;28;20064;-86
2022/06/25 08:00:15;;;;;;;0.80;0.20;;;20.70;99.90;;;;;;5031956;28;20389;-86
2022/06/25 08:03:01;;;;;;;1.05;0.60;;;20.90;99.90;;;;;;5022096;28;20021;-90
2022/06/25 08:05:38;;;;;;;1.48;0.30;;;20.90;99.90;;;;;;5017389;28;20116;-90
2022/06/25 08:08:06;;;;;;;0.45;0.30;;;20.80;99.90;;;;;;5024902;28;20500;-90
2022/06/25 08:13:44;;;;;;;0.68;0.35;;;20.50;99.90;;;;;;5019475;28;20024;-90
2022/06/25 08:16:16;;;;;;;0.60;0.30;;;20.30;99.90;;;;;;5017692;28;20033;-89
2022/06/25 08:19:02;;;;;;;2.50;0.60;;;20.20;99.90;;;;;;5016302;28;20030;-90
2022/06/25 08:22:09;;;;;;;1.15;0.40;;;20.20;99.90;;;;;;5012555;28;20033;-90
2022/06/25 08:25:28;;;;;;;;;;;;;;;;;;;;;
2022/06/25 08:28:34;;;;;;;2.58;1.30;;;20.70;99.90;;;;;;5002483;28;20056;-89
2022/06/25 08:31:09;;;;;;;1.70;0.30;;;20.80;99.90;;;;;;5011444;28;20034;-90
2022/06/25 08:33:37;;;;;;;1.20;0.40;;;20.80;99.90;;;;;;5005647;28;20041;-90
2022/06/25 08:40:58;;;;;;;0.95;0.50;;;20.90;99.90;;;;;;4854859;29;20148;-90
2022/06/25 08:43:41;;;;;;;1.00;0.45;;;21.20;99.90;;;;;;4902125;29;20134;-90
2022/06/25 08:46:41;;;;;;;1.98;0.30;;;21.50;99.90;;;;;;5023320;28;20516;-90
2022/06/25 08:49:53;;;;;;;1.25;0.40;;;21.90;99.90;;;;;;5022190;28;20043;-90
2022/06/25 08:52:21;;;;;;;1.42;0.43;;;22.30;99.90;;;;;;5006387;28;20034;-90
2022/06/25 08:55:01;;;;;;;0.77;0.30;;;22.50;99.90;;;;;;5037372;28;20029;-89
2022/06/25 08:57:32;;;;;;;1.05;0.20;;;22.70;99.90;;;;;;5034172;28;20482;-90
2022/06/25 09:00:00;;;;;;;0.30;0.20;;;22.90;99.90;;;;;;5042910;28;20017;-90
2022/06/25 09:03:21;;;;;;;2.30;0.50;;;23.00;99.90;;;;;;5021178;28;20362;-91
2022/06/25 09:09:21;;;;;;;0.50;0.20;;;23.20;99.90;;;;;;4996597;28;20031;-90
2022/06/25 09:12:05;;;;;;;0.75;0.30;;;23.50;99.90;;;;;;5015892;28;20029;-90
2022/06/25 09:14:39;;;;;;;0.93;0.28;;;23.40;99.90;;;;;;5008076;28;20489;-90
2022/06/25 09:17:14;;;;;;;0.93;0.40;;;22.90;99.90;;;;;;5020809;28;20035;-90
2022/06/25 09:23:05;;;;;;;0.75;0.40;;;23.30;99.90;;;;;;5023553;28;20091;-90
2022/06/25 09:25:38;;;;;;;1.17;0.20;;;23.70;99.90;;;;;;5013051;28;20091;-89
2022/06/25 09:28:30;;;;;;;1.80;0.30;;;23.90;99.90;;;;;;5017263;28;20017;-90
2022/06/25 09:31:27;;;;;;;0.70;0.40;;;24.30;99.90;;;;;;5017945;28;20056;-90
2022/06/25 09:34:13;;;;;;;1.98;0.40;;;24.50;99.90;;;;;;5022067;28;20092;-90
2022/06/25 09:36:42;;;;;;;0.68;0.28;;;24.50;99.90;;;;;;5025571;28;20029;-90
2022/06/25 09:39:14;;;;;;;0.80;0.40;;;24.10;99.90;;;;;;5016613;28;20112;-89
2022/06/25 09:41:53;;;;;;;0.98;0.40;;;23.90;99.90;;;;;;5017640;28;20032;-88
2022/06/25 09:44:19;;;;;;;0.65;0.20;;;24.10;99.90;;;;;;5030704;28;20021;-89
2022/06/25 09:47:01;;;;;;;2.03;0.40;;;24.30;99.90;;;;;;5035541;28;20041;-90
2022/06/25 09:49:41;;;;;;;0.90;0.28;;;24.40;99.90;;;;;;5007363;28;20022;-90
2022/06/25 09:52:15;;;;;;;1.52;0.50;;;24.20;99.90;;;;;;5016256;28;20017;-89
2022/06/25 09:54:52;;;;;;;0.93;0.30;;;24.40;99.90;;;;;;5017269;28;20036;-90
2022/06/25 09:57:37;;;;;;;2.22;0.50;;;24.10;99.90;;;;;;5015026;28;20036;-90
2022/06/25 10:00:38;;;;;;;1.13;0.45;;;24.20;99.90;;;;;;5015989;28;20113;-89
2022/06/25 10:03:05;;;;;;;1.10;0.30;;;24.60;99.90;;;;;;5019586;28;20033;-91
2022/06/25 10:05:53;;;;;;;0.82;0.30;;;24.30;99.90;;;;;;5015384;28;20125;-89
2022/06/25 10:08:32;;;;;;;1.48;0.40;;;24.00;99.90;;;;;;5027252;28;20064;-90
2022/06/25 10:11:06;;;;;;;0.90;0.35;;;24.20;99.90;;;;;;5029147;28;20159;-90
2022/06/25 10:17:10;;;;;;;1.60;0.50;;;24.00;99.90;;;;;;5029726;28;20029;-88
2022/06/25 10:19:37;;;;;;;1.27;0.30;;;24.30;99.90;;;;;;5024472;28;20021;-86
2022/06/25 10:22:03;;;;;;;0.70;0.30;;;24.90;99.90;;;;;;5035510;28;20029;-88
2022/06/25 10:24:29;;;;;;;2.13;0.35;;;25.60;99.90;;;;;;5029957;28;20156;-88
2022/06/25 10:26:56;;;;;;;1.48;0.60;;;26.00;99.90;;;;;;5026561;28;20037;-88
2022/06/25 10:29:26;;;;;;;0.50;0.30;;;26.30;99.90;;;;;;5014804;28;20068;-88
2022/06/25 10:32:15;;;;;;;0.50;0.38;;;26.30;98.50;;;;;;5008362;28;20159;-89
2022/06/25 10:34:58;;;;;;;0.80;0.30;;;26.80;99.40;;;;;;5028327;28;20027;-89
2022/06/25 10:38:03;;;;;;;0.43;0.20;;;26.60;96.80;;;;;;5036815;28;20024;-91
2022/06/25 10:40:30;;;;;;;0.68;0.30;;;26.90;97.50;;;;;;5012461;28;20030;-92
2022/06/25 10:43:00;;;;;;;1.05;0.30;;;27.30;98.30;;;;;;5016465;28;20064;-91
2022/06/25 10:45:26;;;;;;;0.63;0.30;;;27.60;97.50;;;;;;5014128;28;20033;-92
2022/06/25 10:48:04;;;;;;;1.35;0.40;;;27.80;95.30;;;;;;5008442;28;20028;-91
2022/06/25 10:50:31;;;;;;;0.82;0.30;;;28.00;95.30;;;;;;5015741;28;20017;-92
2022/06/25 10:53:06;;;;;;;1.40;0.52;;;28.40;96.10;;;;;;5012372;28;20509;-92
2022/06/25 10:55:57;;;;;;;1.17;0.30;;;28.50;95.10;;;;;;5015273;28;20064;-93
2022/06/25 10:58:40;;;;;;;1.40;0.30;;;28.40;94.80;;;;;;5006030;28;20501;-92
2022/06/25 11:01:06;;;;;;;0.60;0.30;;;28.60;93.80;;;;;;5009931;28;20041;-89
2022/06/25 11:03:36;;;;;;;0.25;0.10;;;28.10;93.20;;;;;;5021555;28;20528;-89
2022/06/25 12:11:46;;;;;;;;;;;;;;;;;;;;;
2022/06/25 12:22:23;;;;;;;0.47;0.20;;;30.40;82.80;;;;;;4929761;29;20071;-89
2022/06/25 12:29:20;;;;;;;0.65;0.30;;;32.90;86.30;;;;;;4858267;29;20128;-89
2022/06/25 12:32:10;;;;;;;0.47;0.17;;;31.60;85.10;;;;;;4834771;29;20118;-90
2022/06/25 12:49:17;;;;;;;1.63;0.65;;;31.50;80.70;;;;;;4897043;29;20107;-92
2022/06/25 12:52:20;;;;;;;0.82;0.30;;;32.30;83.00;;;;;;4838830;29;20401;-91
2022/06/25 15:11:11;;;;;;;0.20;0.15;;;33.40;70.80;;;;;;1329854;26;20124;-90
2022/06/25 15:17:26;;;;;;;0.50;0.30;;;33.50;68.90;;;;;;4992911;28;20045;-90
2022/06/25 15:21:01;;;;;;;;;;;;;;;;;;;;;
2022/06/25 16:46:48;;;;;;;0.95;0.40;;;28.50;75.20;;;;;;5030103;28;20556;-90
2022/06/25 16:50:09;;;;;;;1.17;0.40;;;28.20;75.20;;;;;;5022640;28;20087;-91
2022/06/25 16:56:52;;;;;;;0.30;0.20;;;27.90;76.80;;;;;;5020258;28;20041;-90
2022/06/25 17:00:04;;;;;;;0.55;0.20;;;28.30;77.50;;;;;;5010972;28;20030;-90
2022/06/25 17:03:17;;;;;;;0.52;0.30;;;27.50;78.00;;;;;;5020023;28;20104;-90
2022/06/25 17:08:45;;;;;;;0.57;0.30;;;27.60;77.00;;;;;;5020436;28;20053;-89
2022/06/25 17:11:24;;;;;;;2.03;0.30;;;27.50;78.50;;;;;;5005339;28;20024;-90
2022/06/25 17:13:54;;;;;;;2.05;0.50;;;27.30;79.90;;;;;;4994510;28;20061;-89
2022/06/25 17:16:47;;;;;;;1.70;0.30;;;27.40;78.70;;;;;;5004024;28;20046;-89
2022/06/25 17:19:42;;;;;;;2.05;0.50;;;27.30;79.00;;;;;;5001548;28;20022;-88
2022/06/25 17:22:36;;;;;;;;;;;;;;;;;;;;;
2022/06/25 17:26:02;;;;;;;0.65;0.28;;;27.20;80.60;;;;;;5024930;28;20090;-90
2022/06/25 17:29:04;;;;;;;;;;;;;;;;;;;;;
2022/06/25 17:31:49;;;;;;;0.40;0.30;;;27.20;79.50;;;;;;5025910;28;20121;-90
2022/06/25 17:37:34;;;;;;;1.67;0.35;;;26.90;80.00;;;;;;4991500;28;20029;-90
2022/06/25 17:40:22;;;;;;;1.33;0.30;;;26.90;80.00;;;;;;4997444;28;20026;-88
2022/06/25 17:43:00;;;;;;;0.40;0.30;;;26.70;79.40;;;;;;4993687;28;20501;-88
2022/06/25 17:46:00;;;;;;;0.57;0.30;;;26.70;80.10;;;;;;5006392;28;20025;-90
2022/06/25 17:48:26;;;;;;;1.17;0.40;;;26.60;81.40;;;;;;4997209;28;20644;-87
2022/06/25 17:50:52;;;;;;;0.85;0.45;;;26.40;80.80;;;;;;5008423;28;20030;-86
2022/06/25 17:53:18;;;;;;;0.82;0.30;;;26.30;80.70;;;;;;4996577;28;20490;-87
2022/06/25 17:55:43;;;;;;;0.60;0.30;;;26.20;82.00;;;;;;4993585;28;20425;-86
2022/06/25 17:58:09;;;;;;;0.60;0.38;;;26.10;81.90;;;;;;4995744;28;20049;-86
2022/06/25 18:00:35;;;;;;;3.90;3.00;;;26.10;82.30;;;;;;5013563;28;20053;-86
2022/06/25 18:03:00;;;;;;;2.35;1.48;;;26.00;82.80;;;;;;4988217;28;20057;-87
2022/06/25 18:05:26;;;;;;;1.85;0.70;;;26.00;83.10;;;;;;5006976;28;20025;-87
2022/06/25 18:07:52;;;;;;;1.40;0.52;;;25.90;83.60;;;;;;4996297;28;20037;-86
2022/06/25 18:10:18;;;;;;;1.77;0.73;;;25.90;83.90;;;;;;5010006;28;20023;-86
2022/06/25 18:12:44;;;;;;;2.88;1.25;;;25.80;84.20;;;;;;4995244;28;20026;-86
2022/06/25 18:15:10;;;;;;;2.10;0.95;;;25.70;84.20;;;;;;5010308;28;20021;-86
2022/06/25 18:17:36;;;;;;;1.98;0.70;;;25.70;83.30;;;;;;5005936;28;20044;-86
2022/06/25 18:20:02;;;;;;;1.00;0.43;;;25.70;84.00;;;;;;5011439;28;20474;-88
2022/06/25 18:22:28;;;;;;;1.63;0.40;;;25.60;83.80;;;;;;5002073;28;20018;-89
2022/06/25 18:24:54;;;;;;;1.45;0.52;;;25.50;83.30;;;;;;5009360;28;20037;-89
2022/06/25 18:27:19;;;;;;;1.52;0.68;;;25.40;84.80;;;;;;4989435;28;20092;-86
2022/06/25 18:29:45;;;;;;;0.77;0.32;;;25.30;85.30;;;;;;4990760;28;20021;-86
2022/06/25 18:32:11;;;;;;;0.50;0.30;;;25.30;84.30;;;;;;4998701;28;20014;-86
2022/06/25 18:34:37;;;;;;;1.08;0.30;;;25.20;85.10;;;;;;4995934;28;20496;-86
2022/06/25 18:37:06;;;;;;;0.32;0.15;;;25.20;85.50;;;;;;5010213;28;20093;-86
2022/06/25 18:39:32;;;;;;;0.82;0.38;;;25.10;85.60;;;;;;4998570;28;20029;-86
2022/06/25 18:41:58;;;;;;;0.55;0.40;;;25.10;85.20;;;;;;5014157;28;20018;-89
2022/06/25 18:44:25;;;;;;;1.30;0.40;;;25.00;86.90;;;;;;4994347;28;20026;-89
2022/06/25 18:46:51;;;;;;;1.60;0.50;;;24.90;87.00;;;;;;5005785;28;20052;-89
2022/06/25 18:49:17;;;;;;;1.10;0.50;;;24.80;87.40;;;;;;5013566;28;20470;-89
2022/06/25 18:51:42;;;;;;;2.42;0.73;;;24.70;87.40;;;;;;4990522;28;20042;-89
2022/06/25 18:54:09;;;;;;;1.13;0.50;;;24.70;87.60;;;;;;4993074;28;20114;-89
2022/06/25 18:56:35;;;;;;;1.10;0.45;;;24.50;87.80;;;;;;5004642;28;20033;-89
2022/06/25 18:59:01;;;;;;;1.27;0.50;;;24.50;88.60;;;;;;4996005;28;20018;-89
2022/06/25 19:01:28;;;;;;;1.30;0.50;;;24.40;87.90;;;;;;5014693;28;20407;-89
2022/06/25 19:03:54;;;;;;;0.60;0.20;;;24.40;89.20;;;;;;5012893;28;20089;-88
2022/06/25 19:06:20;;;;;;;0.98;0.40;;;24.30;88.90;;;;;;4987118;28;20037;-89